Time;durP1;ratioP1;P1;durP2;ratioP2;P2;SDS_P1;SDS_P2;PMS_P1;PMS_P2;Temp;Humidity;BMP_temperature;BMP_pressure;BME280_temperature;BME280_humidity;BME280_pressure;Samples;Min_cycle;Max_cycle;Signal;HPM_P1;HPM_P2
2023/07/27 00:03:57;;;;;;;3.70;1.75;;;;;;;15.94;58.88;99505.50;7800919;32;39949;-79
2023/07/27 00:08:14;;;;;;;3.03;1.90;;;;;;;15.72;59.64;99504.34;7791163;32;39911;-79
2023/07/27 00:12:30;;;;;;;4.60;1.92;;;;;;;15.85;59.29;99515.59;7798558;32;38640;-79
2023/07/27 00:16:46;;;;;;;2.62;1.73;;;;;;;15.75;59.55;99514.75;7818367;32;37588;-79
2023/07/27 00:21:03;;;;;;;4.90;2.17;;;;;;;15.80;59.40;99526.72;7818252;32;39364;-79
2023/07/27 00:25:19;;;;;;;3.85;2.40;;;;;;;15.75;59.53;99533.19;7809877;32;39878;-79
2023/07/27 00:29:36;;;;;;;2.62;1.90;;;;;;;15.72;59.52;99537.31;7817916;32;37887;-80
2023/07/27 00:33:52;;;;;;;5.03;1.95;;;;;;;15.31;60.53;99542.97;7801267;32;36913;-79
2023/07/27 00:38:08;;;;;;;3.05;1.67;;;;;;;15.59;59.00;99538.19;7790473;32;39045;-79
2023/07/27 00:42:24;;;;;;;4.20;1.70;;;;;;;15.49;59.41;99544.75;7798175;32;39949;-79
2023/07/27 00:46:41;;;;;;;4.18;1.58;;;;;;;15.27;59.53;99531.78;7821257;32;37995;-79
2023/07/27 00:50:57;;;;;;;3.25;1.70;;;;;;;15.19;59.80;99541.59;7807354;32;36919;-79
2023/07/27 00:55:14;;;;;;;3.72;1.80;;;;;;;15.16;60.30;99549.59;7796382;32;39227;-80
2023/07/27 00:59:30;;;;;;;3.97;1.90;;;;;;;15.29;59.56;99547.97;7793708;32;40735;-80
2023/07/27 01:03:46;;;;;;;3.67;1.58;;;;;;;15.15;59.72;99540.56;7794726;32;37868;-80
2023/07/27 01:08:03;;;;;;;6.57;1.60;;;;;;;15.16;59.78;99536.72;7793757;32;37022;-80
2023/07/27 01:12:27;;;;;;;2.42;1.92;;;;;;;15.06;60.04;99547.91;7793469;32;39964;-79
2023/07/27 01:16:43;;;;;;;3.60;1.85;;;;;;;14.68;61.47;99558.28;7780351;32;39844;-79
2023/07/27 01:21:07;;;;;;;1.90;1.70;;;;;;;14.66;61.40;99550.38;7793275;32;37959;-80
2023/07/27 01:25:37;;;;;;;;;;;;;;;14.84;61.06;99551.37;7793870;32;37093;-79
2023/07/27 01:30:08;;;;;;;2.47;1.73;;;;;;;14.89;60.92;99558.72;7793580;32;39655;-80
2023/07/27 01:34:33;;;;;;;3.22;1.70;;;;;;;14.95;60.38;99546.50;7793428;32;40840;-79
2023/07/27 01:38:50;;;;;;;10.80;2.05;;;;;;;14.93;60.34;99551.47;7779674;32;37986;-83
2023/07/27 01:43:07;;;;;;;2.83;1.98;;;;;;;14.95;59.87;99543.75;7779148;32;37764;-82
2023/07/27 01:47:23;;;;;;;4.28;1.73;;;;;;;14.92;59.91;99547.94;7793387;32;39269;-82
2023/07/27 01:51:41;;;;;;;6.80;1.90;;;;;;;15.00;59.58;99540.91;7792833;32;40031;-82
2023/07/27 01:55:59;;;;;;;3.42;1.73;;;;;;;14.89;59.68;99536.75;7779380;32;37907;-82
2023/07/27 02:00:16;;;;;;;9.55;2.00;;;;;;;14.94;59.48;99534.72;7778956;32;37679;-82
2023/07/27 02:04:33;;;;;;;4.93;1.80;;;;;;;14.87;59.64;99534.31;7793084;32;40035;-80
2023/07/27 02:08:49;;;;;;;4.62;2.10;;;;;;;14.61;60.50;99547.75;7792743;32;39932;-80
2023/07/27 02:13:31;;;;;;;1.98;1.73;;;;;;;14.73;60.02;99531.59;7792896;32;38009;-80
2023/07/27 02:17:52;;;;;;;7.32;2.00;;;;;;;14.84;59.83;99532.19;7781823;32;36929;-78
2023/07/27 02:22:09;;;;;;;2.62;1.70;;;;;;;14.79;59.63;99522.13;7779215;32;39210;-80
2023/07/27 02:26:26;;;;;;;2.65;1.98;;;;;;;14.85;59.66;99531.06;7792733;32;40134;-80
2023/07/27 02:30:43;;;;;;;2.12;1.65;;;;;;;14.76;59.82;99533.72;7792439;32;38645;-81
2023/07/27 02:34:59;;;;;;;2.58;1.80;;;;;;;14.79;59.86;99541.31;7792747;32;37192;-82
2023/07/27 02:39:15;;;;;;;3.67;1.70;;;;;;;14.77;60.17;99531.78;7792487;32;39257;-82
2023/07/27 02:43:32;;;;;;;2.40;1.62;;;;;;;14.79;60.17;99537.78;7792606;32;39987;-82
2023/07/27 02:47:48;;;;;;;3.90;1.92;;;;;;;14.75;60.48;99534.03;7792296;32;38710;-82
2023/07/27 02:52:05;;;;;;;2.17;1.77;;;;;;;14.74;60.30;99535.94;7792548;32;36894;-82
2023/07/27 02:56:21;;;;;;;1.98;1.65;;;;;;;14.91;59.92;99540.81;7778594;32;39341;-82
2023/07/27 03:00:37;;;;;;;2.75;1.80;;;;;;;14.74;60.54;99543.37;7791942;32;39904;-81
2023/07/27 03:04:54;;;;;;;4.03;1.90;;;;;;;14.71;60.66;99552.19;7791370;32;37955;-82
2023/07/27 03:09:11;;;;;;;5.22;2.10;;;;;;;14.46;61.83;99562.53;7792072;32;36989;-82
2023/07/27 03:13:27;;;;;;;3.05;1.90;;;;;;;14.57;61.68;99557.66;7792375;32;39351;-82
2023/07/27 03:17:43;;;;;;;3.50;1.87;;;;;;;14.64;61.50;99558.94;7791934;32;39874;-82
2023/07/27 03:22:00;;;;;;;3.03;2.00;;;;;;;14.48;62.03;99565.78;7792058;32;37968;-82
2023/07/27 03:26:16;;;;;;;2.42;1.62;;;;;;;14.68;61.31;99553.63;7791758;32;37483;-82
2023/07/27 03:30:38;;;;;;;3.33;2.15;;;;;;;14.45;62.09;99558.16;7792107;32;39324;-79
2023/07/27 03:34:54;;;;;;;3.17;1.90;;;;;;;14.42;62.49;99550.56;7792071;32;39726;-79
2023/07/27 03:39:10;;;;;;;7.82;2.10;;;;;;;14.00;63.86;99564.16;7791411;32;37883;-79
2023/07/27 03:43:27;;;;;;;6.12;2.20;;;;;;;14.27;63.00;99559.87;7791679;32;36843;-79
2023/07/27 03:47:44;;;;;;;1.85;1.65;;;;;;;14.14;63.63;99569.66;7791458;32;39291;-81
2023/07/27 03:52:01;;;;;;;3.10;2.20;;;;;;;13.88;64.23;99561.06;7791667;32;39864;-81
2023/07/27 03:56:18;;;;;;;4.53;1.98;;;;;;;13.57;65.21;99567.03;7791192;32;38015;-82
2023/07/27 04:00:34;;;;;;;3.12;1.98;;;;;;;13.63;65.26;99567.78;7791310;32;36753;-82
2023/07/27 04:04:51;;;;;;;3.05;2.37;;;;;;;13.58;65.84;99576.09;7776971;32;39300;-81
2023/07/27 04:09:08;;;;;;;3.75;1.90;;;;;;;13.56;65.19;99579.13;7777381;32;40859;-81
2023/07/27 04:13:24;;;;;;;2.53;1.92;;;;;;;13.07;66.73;99594.81;7791100;32;37832;-81
2023/07/27 04:17:41;;;;;;;3.05;2.00;;;;;;;13.71;64.95;99597.22;7793091;32;36940;-81
2023/07/27 04:21:57;;;;;;;6.18;2.08;;;;;;;13.99;63.72;99591.88;7794311;32;39266;-81
2023/07/27 04:26:13;;;;;;;4.45;1.90;;;;;;;14.10;63.06;99596.06;7793917;32;40731;-81
2023/07/27 04:30:30;;;;;;;3.25;2.08;;;;;;;14.27;62.70;99598.25;7794293;32;38649;-76
2023/07/27 04:34:46;;;;;;;2.75;1.80;;;;;;;14.47;64.02;99602.56;7793973;32;36817;-82
2023/07/27 04:39:03;;;;;;;5.18;2.08;;;;;;;14.77;61.85;99611.34;7812661;32;39186;-81
2023/07/27 04:43:19;;;;;;;4.50;2.10;;;;;;;14.67;61.26;99622.53;7821350;32;40018;-81
2023/07/27 04:47:35;;;;;;;2.70;1.70;;;;;;;14.87;60.44;99616.66;7818471;32;38092;-81
2023/07/27 04:51:51;;;;;;;2.25;1.67;;;;;;;14.82;60.88;99630.47;7821375;32;37625;-81
2023/07/27 04:56:08;;;;;;;2.25;1.80;;;;;;;14.78;60.87;99640.41;7805784;32;40125;-80
2023/07/27 05:00:24;;;;;;;4.82;2.05;;;;;;;14.91;60.72;99639.62;7793638;32;39752;-81
2023/07/27 05:04:40;;;;;;;2.65;2.00;;;;;;;14.51;60.79;99641.97;7798735;32;38451;-81
2023/07/27 05:08:57;;;;;;;3.03;1.87;;;;;;;15.01;60.50;99644.09;7821083;32;37123;-80
2023/07/27 05:13:13;;;;;;;4.60;2.25;;;;;;;15.27;59.80;99647.12;7810658;32;39302;-81
2023/07/27 05:17:29;;;;;;;2.72;1.85;;;;;;;15.53;59.16;99652.09;7805082;32;40716;-78
2023/07/27 05:21:46;;;;;;;2.75;1.60;;;;;;;15.52;58.79;99658.69;7806816;32;37956;-79
2023/07/27 05:26:03;;;;;;;3.30;1.90;;;;;;;15.60;58.67;99660.72;7820911;32;36770;-78
2023/07/27 05:30:19;;;;;;;3.05;1.87;;;;;;;14.77;60.08;99674.47;7820124;32;40099;-82
2023/07/27 05:34:35;;;;;;;3.33;1.85;;;;;;;14.95;60.06;99678.25;7807432;32;40748;-79
2023/07/27 05:38:52;;;;;;;6.60;2.25;;;;;;;14.60;61.03;99673.09;7793036;32;37888;-81
2023/07/27 05:43:08;;;;;;;3.42;1.98;;;;;;;14.54;61.70;99671.56;7793729;32;36756;-82
2023/07/27 05:47:25;;;;;;;2.87;1.92;;;;;;;15.17;59.92;99669.31;7793266;32;39303;-81
2023/07/27 05:51:41;;;;;;;3.05;2.12;;;;;;;15.08;59.87;99679.38;7793284;32;40213;-80
2023/07/27 05:55:57;;;;;;;2.60;1.85;;;;;;;15.41;58.67;99677.34;7814416;32;39366;-81
2023/07/27 06:00:14;;;;;;;3.35;2.00;;;;;;;15.39;58.69;99680.37;7797073;32;37002;-80
2023/07/27 06:04:30;;;;;;;4.75;1.83;;;;;;;15.46;58.68;99682.72;7795958;32;38931;-81
2023/07/27 06:08:47;;;;;;;3.80;2.00;;;;;;;15.15;59.74;99690.78;7792967;32;40856;-78
2023/07/27 06:13:04;;;;;;;2.37;2.00;;;;;;;15.32;59.54;99682.72;7795164;32;38679;-79
2023/07/27 06:17:21;;;;;;;1.92;1.60;;;;;;;15.50;59.94;99683.72;7820015;32;37826;-76
2023/07/27 06:21:37;;;;;;;2.87;1.87;;;;;;;15.91;59.09;99679.31;7820289;32;39371;-77
2023/07/27 06:25:53;;;;;;;3.97;1.83;;;;;;;16.18;57.32;99681.16;7798896;32;39879;-74
2023/07/27 06:30:12;;;;;;;2.53;1.67;;;;;;;16.07;57.96;99685.25;7794048;32;37850;-76
2023/07/27 06:34:28;;;;;;;2.08;1.70;;;;;;;16.53;57.16;99681.37;7792174;32;36811;-75
2023/07/27 06:38:44;;;;;;;3.17;1.87;;;;;;;16.06;57.91;99673.44;7791583;32;39975;-75
2023/07/27 06:43:01;;;;;;;2.53;1.83;;;;;;;16.56;57.34;99674.44;7792381;32;40102;-75
2023/07/27 06:47:17;;;;;;;2.28;1.70;;;;;;;17.05;55.39;99669.84;7792431;32;38173;-75
2023/07/27 06:51:34;;;;;;;3.45;1.83;;;;;;;17.27;55.52;99669.78;7778671;32;36878;-76
2023/07/27 06:55:51;;;;;;;1.95;1.48;;;;;;;17.35;55.37;99675.63;7783437;32;39355;-79
2023/07/27 07:00:08;;;;;;;7.28;1.90;;;;;;;17.53;54.79;99669.03;7791859;32;39952;-78
2023/07/27 07:04:24;;;;;;;4.55;1.73;;;;;;;17.47;54.02;99675.81;7792235;32;37645;-79
2023/07/27 07:08:41;;;;;;;3.35;1.60;;;;;;;17.94;52.82;99675.28;7792038;32;36887;-79
2023/07/27 07:12:57;;;;;;;4.10;1.58;;;;;;;18.23;51.92;99671.88;7791594;32;39450;-78
2023/07/27 07:17:13;;;;;;;2.03;1.60;;;;;;;18.04;51.67;99672.19;7802932;32;39961;-78
2023/07/27 07:21:30;;;;;;;3.35;1.80;;;;;;;17.91;52.18;99673.97;7810046;32;37937;-78
2023/07/27 07:25:47;;;;;;;2.17;1.70;;;;;;;17.97;52.29;99669.09;7816858;32;37740;-78
2023/07/27 07:30:04;;;;;;;2.70;1.50;;;;;;;17.75;52.40;99665.34;7809770;32;39291;-79
2023/07/27 07:34:20;;;;;;;4.87;1.62;;;;;;;18.17;51.82;99665.69;7814974;32;39919;-78
2023/07/27 07:38:37;;;;;;;2.78;1.60;;;;;;;18.38;51.09;99660.31;7803101;32;37948;-78
2023/07/27 07:42:53;;;;;;;5.62;1.80;;;;;;;18.50;51.14;99664.34;7819012;32;37171;-78
2023/07/27 07:47:09;;;;;;;3.53;1.87;;;;;;;18.70;50.03;99666.41;7806738;32;39178;-78
2023/07/27 07:51:26;;;;;;;3.00;1.60;;;;;;;19.00;50.32;99663.72;7805044;32;40159;-79
2023/07/27 07:55:42;;;;;;;3.72;1.73;;;;;;;18.92;50.43;99661.81;7818518;32;37753;-78
2023/07/27 07:59:59;;;;;;;4.72;1.60;;;;;;;18.95;48.82;99661.16;7754445;32;864350;-78
2023/07/27 08:04:15;;;;;;;1.75;1.48;;;;;;;18.61;50.47;99668.41;7764161;32;40146;-79
2023/07/27 08:08:32;;;;;;;2.95;1.60;;;;;;;18.95;50.71;99656.47;7774225;32;41377;-77
2023/07/27 08:12:49;;;;;;;3.85;2.00;;;;;;;19.50;48.49;99651.91;7791161;32;38678;-76
2023/07/27 08:17:08;;;;;;;2.03;1.50;;;;;;;19.62;47.58;99655.91;7790045;32;37648;-78
2023/07/27 08:21:25;;;;;;;2.78;1.70;;;;;;;19.61;46.95;99648.75;7763801;32;39319;-83
2023/07/27 08:25:42;;;;;;;4.12;1.75;;;;;;;19.80;47.05;99646.41;7763531;32;40068;-76
2023/07/27 08:29:58;;;;;;;2.08;1.45;;;;;;;19.85;45.95;99646.19;7782267;32;38520;-77
2023/07/27 08:34:14;;;;;;;3.17;1.67;;;;;;;20.14;47.68;99632.59;7769368;32;36824;-78
2023/07/27 08:38:31;;;;;;;3.83;1.42;;;;;;;20.42;45.54;99624.47;7772444;32;39354;-78
2023/07/27 08:42:49;;;;;;;2.80;1.55;;;;;;;19.97;45.78;99628.03;7744979;32;39890;-78
2023/07/27 08:47:05;;;;;;;3.33;1.80;;;;;;;20.38;45.50;99627.13;7769886;32;38876;-78
2023/07/27 08:51:22;;;;;;;5.47;1.70;;;;;;;20.69;46.28;99630.59;7756840;32;36873;-78
2023/07/27 08:55:41;;;;;;;5.72;1.40;;;;;;;20.57;45.26;99631.34;7771771;32;39929;-78
2023/07/27 08:59:58;;;;;;;2.12;1.52;;;;;;;20.65;44.80;99629.66;7758185;32;40040;-78
2023/07/27 09:04:14;;;;;;;3.87;1.83;;;;;;;21.04;45.32;99619.91;7754713;32;38577;-78
2023/07/27 09:08:31;;;;;;;2.37;1.60;;;;;;;21.37;42.57;99622.53;7766395;32;37830;-79
2023/07/27 09:12:47;;;;;;;3.37;1.85;;;;;;;21.79;42.74;99620.63;7754748;32;39206;-78
2023/07/27 09:17:05;;;;;;;1.80;1.45;;;;;;;21.70;41.94;99620.75;7793302;32;40085;-78
2023/07/27 09:21:21;;;;;;;2.15;1.45;;;;;;;21.72;41.86;99624.78;7793313;32;37893;-77
2023/07/27 09:25:40;;;;;;;3.05;1.70;;;;;;;22.45;41.36;99617.34;7778809;32;37692;-78
2023/07/27 09:29:59;;;;;;;3.60;1.35;;;;;;;22.20;40.83;99624.16;7779727;32;38371;-78
2023/07/27 09:34:18;;;;;;;3.90;1.85;;;;;;;22.48;38.93;99618.59;7792137;32;41002;-78
2023/07/27 09:38:35;;;;;;;3.20;1.42;;;;;;;22.86;39.10;99609.66;7792716;32;37921;-77
2023/07/27 09:42:53;;;;;;;2.40;1.52;;;;;;;22.38;38.77;99614.38;7792437;32;35972;-77
2023/07/27 09:47:17;;;;;;;2.53;1.25;;;;;;;22.71;37.47;99613.25;7792765;32;39994;-78
2023/07/27 09:51:34;;;;;;;2.87;1.25;;;;;;;22.30;36.27;99601.44;7779690;32;39910;-77
2023/07/27 09:55:56;;;;;;;2.47;1.30;;;;;;;22.85;35.06;99599.72;7778287;32;38483;-78
2023/07/27 10:00:13;;;;;;;2.28;1.40;;;;;;;23.32;34.73;99598.06;7779322;32;37484;-78
2023/07/27 10:04:29;;;;;;;1.50;1.15;;;;;;;23.08;37.77;99596.31;7790384;32;39381;-78
2023/07/27 10:08:47;;;;;;;1.87;1.20;;;;;;;23.21;36.50;99600.59;7792380;32;39970;-78
2023/07/27 10:13:26;;;;;;;3.58;1.60;;;;;;;23.10;35.33;99593.19;7786048;32;37862;-78
2023/07/27 10:17:49;;;;;;;2.40;1.50;;;;;;;22.89;38.15;99580.34;7756509;32;37506;-78
2023/07/27 10:22:13;;;;;;;1.50;1.37;;;;;;;23.36;35.12;99590.59;7792668;32;39325;-78
2023/07/27 10:26:51;;;;;;;2.97;1.58;;;;;;;22.58;36.57;99590.31;7791914;32;39889;-78
2023/07/27 10:31:25;;;;;;;1.87;1.52;;;;;;;22.74;36.09;99579.19;7792075;32;38046;-77
2023/07/27 10:36:02;;;;;;;4.87;1.62;;;;;;;23.09;37.31;99581.25;7775132;32;37056;-77
2023/07/27 10:40:25;;;;;;;2.10;1.30;;;;;;;23.21;34.66;99567.22;7765595;32;39971;-79
2023/07/27 10:44:47;;;;;;;1.17;0.93;;;;;;;23.09;34.72;99563.75;7763896;32;40791;-75
2023/07/27 10:49:15;;;;;;;2.58;1.50;;;;;;;23.20;35.21;99560.06;7785299;32;37805;-76
2023/07/27 10:53:43;;;;;;;5.12;1.30;;;;;;;23.73;34.82;99558.78;7773729;32;37032;-79
2023/07/27 10:58:00;;;;;;;2.42;1.48;;;;;;;23.87;33.87;99550.78;7751295;32;39236;-79
2023/07/27 11:02:17;;;;;;;2.40;1.23;;;;;;;24.01;33.71;99541.91;7751410;32;39605;-79
2023/07/27 11:06:44;;;;;;;3.87;1.40;;;;;;;24.08;32.26;99535.66;7764915;32;38667;-78
2023/07/27 11:11:17;;;;;;;1.67;1.10;;;;;;;23.74;33.33;99538.94;7764957;32;37495;-79
2023/07/27 11:15:34;;;;;;;1.75;1.17;;;;;;;24.13;30.30;99524.22;7765121;32;39319;-79
2023/07/27 11:19:51;;;;;;;2.10;1.23;;;;;;;24.78;30.21;99533.69;7764984;32;39731;-79
2023/07/27 11:24:08;;;;;;;1.33;1.10;;;;;;;24.47;32.35;99516.03;7751060;32;37931;-79
2023/07/27 11:28:25;;;;;;;1.52;1.10;;;;;;;24.79;29.88;99518.59;7763940;32;37101;-80
2023/07/27 11:32:41;;;;;;;1.35;1.20;;;;;;;25.29;29.88;99524.91;7750885;32;39438;-79
2023/07/27 11:36:59;;;;;;;3.62;1.37;;;;;;;24.29;31.26;99527.69;7764631;32;40494;-79
2023/07/27 11:41:16;;;;;;;1.55;1.02;;;;;;;24.22;32.02;99519.19;7764576;32;36926;-79
2023/07/27 11:45:56;;;;;;;2.45;1.10;;;;;;;24.10;32.02;99511.03;7752490;32;37218;-80
2023/07/27 11:50:18;;;;;;;2.65;1.27;;;;;;;24.76;31.72;99502.59;7764542;32;40050;-79
2023/07/27 11:54:40;;;;;;;4.55;1.20;;;;;;;24.88;30.16;99494.03;7764406;32;40872;-79
2023/07/27 11:58:56;;;;;;;2.27;1.37;;;;;;;25.31;28.44;99491.84;7764063;32;38589;-79
2023/07/27 12:03:13;;;;;;;3.42;1.30;;;;;;;24.92;29.73;99492.06;7764119;32;36904;-79
2023/07/27 12:07:39;;;;;;;2.85;1.23;;;;;;;25.29;30.79;99485.84;7764079;32;39297;-79
2023/07/27 12:12:00;;;;;;;1.77;1.20;;;;;;;25.02;30.13;99493.41;7764106;32;39305;-79
2023/07/27 12:16:17;;;;;;;1.45;1.20;;;;;;;24.63;30.08;99483.31;7750256;32;36999;-79
2023/07/27 12:20:37;;;;;;;2.67;1.33;;;;;;;24.70;30.17;99483.41;7763781;32;36972;-79
2023/07/27 12:24:56;;;;;;;1.67;1.27;;;;;;;24.93;30.98;99480.56;7750242;32;38593;-79
2023/07/27 12:29:32;;;;;;;1.83;1.10;;;;;;;25.41;30.54;99471.66;7762907;32;40232;-80
2023/07/27 12:33:52;;;;;;;3.92;1.20;;;;;;;26.28;28.18;99467.00;7763454;32;38198;-79
2023/07/27 12:38:08;;;;;;;1.35;1.12;;;;;;;26.47;28.23;99475.13;7765322;32;36674;-79
2023/07/27 12:42:27;;;;;;;1.58;1.20;;;;;;;26.40;27.76;99475.84;7774348;32;39444;-81
2023/07/27 12:46:46;;;;;;;2.55;1.23;;;;;;;25.85;28.62;99470.97;7790186;32;39392;-80
2023/07/27 12:51:02;;;;;;;3.30;1.20;;;;;;;26.35;28.37;99473.44;7794155;32;37755;-79
2023/07/27 12:55:19;;;;;;;2.12;1.15;;;;;;;25.78;28.20;99462.50;7782199;32;36877;-79
2023/07/27 12:59:36;;;;;;;2.50;1.30;;;;;;;26.07;27.74;99460.03;7775917;32;39294;-80
2023/07/27 13:03:55;;;;;;;1.98;1.20;;;;;;;25.47;27.26;99452.56;7776597;32;39761;-80
2023/07/27 13:08:13;;;;;;;3.70;1.30;;;;;;;25.60;28.51;99450.34;7774234;32;38049;-80
2023/07/27 13:12:31;;;;;;;2.25;1.55;;;;;;;25.90;28.75;99446.66;7774047;32;38011;-81
2023/07/27 13:16:49;;;;;;;2.17;1.30;;;;;;;26.33;25.65;99447.06;7775118;32;37461;-81
2023/07/27 13:21:05;;;;;;;3.28;1.50;;;;;;;25.80;26.71;99443.38;7776212;32;40061;-79
2023/07/27 13:25:22;;;;;;;5.90;1.30;;;;;;;25.62;26.88;99445.97;7779427;32;38577;-80
2023/07/27 13:29:39;;;;;;;1.10;0.93;;;;;;;25.50;27.90;99443.44;7777665;32;35525;-80
2023/07/27 13:33:55;;;;;;;4.68;1.40;;;;;;;25.46;26.56;99440.62;7781085;32;39334;-80
2023/07/27 13:38:13;;;;;;;0.90;0.90;;;;;;;25.29;27.81;99441.22;7767284;32;39460;-80
2023/07/27 13:42:29;;;;;;;3.30;1.33;;;;;;;25.47;26.29;99447.81;7780234;32;37992;-79
2023/07/27 13:46:45;;;;;;;2.65;0.90;;;;;;;25.66;27.01;99440.44;7765816;32;37750;-80
2023/07/27 13:51:02;;;;;;;2.40;1.30;;;;;;;25.97;25.06;99441.16;7765398;32;39977;-80
2023/07/27 13:55:18;;;;;;;1.75;1.20;;;;;;;26.23;25.42;99443.81;7765855;32;40017;-80
2023/07/27 13:59:34;;;;;;;1.75;1.02;;;;;;;26.18;26.26;99435.78;7765531;32;37676;-80
2023/07/27 14:03:50;;;;;;;3.25;1.08;;;;;;;26.24;25.68;99437.03;7765654;32;37577;-80
2023/07/27 14:08:07;;;;;;;1.98;1.10;;;;;;;26.48;26.41;99437.59;7768580;32;39619;-81
2023/07/27 14:12:24;;;;;;;2.05;1.27;;;;;;;26.96;26.39;99440.34;7772400;32;40951;-80
2023/07/27 14:16:40;;;;;;;1.40;0.90;;;;;;;27.05;25.53;99433.59;7752272;32;37900;-81
2023/07/27 14:20:56;;;;;;;1.37;1.20;;;;;;;26.82;26.37;99428.25;7792937;32;36613;-80
2023/07/27 14:25:13;;;;;;;1.33;1.20;;;;;;;26.05;26.57;99426.88;7792924;32;39427;-80
2023/07/27 14:29:29;;;;;;;1.92;1.25;;;;;;;26.86;26.64;99424.31;7792699;32;40826;-80
2023/07/27 14:33:46;;;;;;;2.87;1.25;;;;;;;26.17;27.22;99430.59;7792753;32;38730;-81
2023/07/27 14:38:03;;;;;;;1.75;1.30;;;;;;;26.47;27.01;99424.03;7792686;32;37003;-80
2023/07/27 14:42:20;;;;;;;1.73;1.10;;;;;;;26.64;25.86;99422.56;7792562;32;40172;-85
2023/07/27 14:46:37;;;;;;;1.73;1.05;;;;;;;26.23;27.10;99413.09;7786926;32;40836;-84
2023/07/27 14:50:53;;;;;;;4.93;1.25;;;;;;;26.37;27.04;99417.97;7765407;32;37893;-85
2023/07/27 14:55:09;;;;;;;1.80;1.30;;;;;;;26.69;26.69;99414.63;7765424;32;38365;-84
2023/07/27 14:59:26;;;;;;;2.45;1.15;;;;;;;26.75;26.26;99415.84;7764798;32;39269;-81
2023/07/27 15:03:42;;;;;;;3.55;1.30;;;;;;;26.20;27.49;99404.69;7764825;32;40613;-81
2023/07/27 15:08:07;;;;;;;3.78;1.60;;;;;;;26.44;27.67;99414.44;7764729;32;38872;-83
2023/07/27 15:12:23;;;;;;;2.33;1.10;;;;;;;25.94;28.21;99408.38;7776385;32;36376;-77
2023/07/27 15:16:39;;;;;;;1.77;1.50;;;;;;;26.41;26.26;99409.62;7769695;32;39972;-77
2023/07/27 15:20:58;;;;;;;4.32;1.50;;;;;;;25.91;28.31;99403.59;7771578;32;40527;-78
2023/07/27 15:25:15;;;;;;;2.60;1.12;;;;;;;26.00;25.74;99418.06;7759664;32;38444;-79
2023/07/27 15:29:32;;;;;;;2.10;1.40;;;;;;;25.17;28.15;99413.53;7781855;32;36899;-78
2023/07/27 15:33:48;;;;;;;2.70;1.27;;;;;;;25.60;28.18;99397.31;7780922;32;39036;-79
2023/07/27 15:38:04;;;;;;;1.50;1.10;;;;;;;25.43;28.06;99413.47;7767844;32;40634;-79
2023/07/27 15:42:21;;;;;;;3.90;1.12;;;;;;;25.20;27.73;99413.59;7773179;32;37865;-79
2023/07/27 15:46:38;;;;;;;2.12;1.17;;;;;;;25.49;28.27;99402.78;7768557;32;36911;-79
2023/07/27 15:50:54;;;;;;;2.28;1.40;;;;;;;25.95;26.94;99401.66;7776899;32;39350;-80
2023/07/27 15:55:11;;;;;;;1.20;1.10;;;;;;;26.20;25.58;99391.50;7769898;32;38391;-79
2023/07/27 15:59:28;;;;;;;1.48;1.10;;;;;;;25.85;26.69;99392.78;7763282;32;37861;-79
2023/07/27 16:03:44;;;;;;;1.52;1.10;;;;;;;26.01;25.67;99397.34;7762786;32;36981;-80
2023/07/27 16:08:02;;;;;;;1.87;1.27;;;;;;;25.16;27.78;99411.94;7766163;32;39956;-79
2023/07/27 16:12:18;;;;;;;2.10;1.30;;;;;;;25.44;26.62;99409.50;7772320;32;40736;-78
2023/07/27 16:16:35;;;;;;;5.90;1.27;;;;;;;25.53;26.63;99394.47;7767468;32;37879;-80
2023/07/27 16:20:52;;;;;;;2.25;1.08;;;;;;;25.69;26.65;99392.22;7774966;32;36938;-80
2023/07/27 16:25:09;;;;;;;1.92;1.08;;;;;;;25.83;27.19;99388.75;7763236;32;38997;-79
2023/07/27 16:29:27;;;;;;;2.75;1.42;;;;;;;25.61;28.03;99393.31;7771230;32;38875;-78
2023/07/27 16:33:43;;;;;;;1.42;1.15;;;;;;;25.92;27.44;99385.63;7771095;32;38727;-79
2023/07/27 16:38:00;;;;;;;1.95;1.27;;;;;;;25.01;27.75;99388.63;7776170;32;35609;-80
2023/07/27 16:42:17;;;;;;;4.68;1.52;;;;;;;25.08;27.87;99389.53;7776350;32;40018;-78
2023/07/27 16:46:34;;;;;;;1.67;1.35;;;;;;;25.20;27.69;99382.09;7779483;32;40729;-79
2023/07/27 16:50:51;;;;;;;3.22;1.37;;;;;;;25.25;28.29;99390.13;7787104;32;37957;-79
2023/07/27 16:55:07;;;;;;;2.00;1.20;;;;;;;24.85;28.89;99383.25;7781779;32;37752;-79
2023/07/27 16:59:25;;;;;;;2.12;1.48;;;;;;;24.57;30.42;99392.84;7770855;32;40090;-80
2023/07/27 17:03:41;;;;;;;2.45;1.48;;;;;;;25.15;30.00;99390.78;7769136;32;40763;-78
2023/07/27 17:07:58;;;;;;;1.73;1.17;;;;;;;24.97;29.07;99398.94;7765194;32;38489;-78
2023/07/27 17:12:15;;;;;;;4.03;1.33;;;;;;;24.20;31.13;99401.81;7770968;32;36977;-78
2023/07/27 17:16:31;;;;;;;2.95;1.40;;;;;;;24.55;30.35;99397.97;7771153;32;39214;-79
2023/07/27 17:20:53;;;;;;;3.35;1.55;;;;;;;24.45;30.90;99404.97;7780984;32;40033;-80
2023/07/27 17:25:09;;;;;;;8.60;1.60;;;;;;;24.25;31.12;99409.84;7772683;32;37889;-79
2023/07/27 17:29:26;;;;;;;2.92;1.58;;;;;;;24.12;32.06;99402.84;7781416;32;36905;-79
2023/07/27 17:33:43;;;;;;;2.08;1.35;;;;;;;23.91;31.67;99404.09;7765795;32;39350;-81
2023/07/27 17:37:59;;;;;;;2.78;1.20;;;;;;;24.05;31.47;99408.31;7791121;32;40028;-81
2023/07/27 17:42:16;;;;;;;2.12;1.33;;;;;;;23.83;31.78;99407.94;7751685;32;36526;-80
2023/07/27 17:46:32;;;;;;;2.80;1.65;;;;;;;23.78;32.01;99403.47;7765652;32;37035;-80
2023/07/27 17:51:00;;;;;;;3.87;1.60;;;;;;;24.16;32.26;99403.72;7765024;32;39376;-81
2023/07/27 17:55:16;;;;;;;3.37;1.55;;;;;;;23.83;32.10;99415.50;7777384;32;41661;-78
2023/07/27 17:59:35;;;;;;;3.83;1.70;;;;;;;23.71;32.65;99408.88;7790624;32;37960;-78
2023/07/27 18:03:52;;;;;;;2.55;1.42;;;;;;;24.00;33.37;99401.06;7773289;32;37671;-78
2023/07/27 18:08:08;;;;;;;2.87;1.77;;;;;;;23.87;32.75;99394.91;7787424;32;40561;-79
2023/07/27 18:12:25;;;;;;;4.62;1.48;;;;;;;24.09;32.19;99400.81;7776921;32;39909;-78
2023/07/27 18:16:41;;;;;;;2.45;1.37;;;;;;;23.78;33.09;99406.25;7791855;32;37994;-78
2023/07/27 18:20:57;;;;;;;2.60;1.48;;;;;;;23.78;33.73;99411.81;7791118;32;36981;-79
2023/07/27 18:25:13;;;;;;;2.78;1.50;;;;;;;23.70;34.64;99404.50;7767166;32;40004;-78
2023/07/27 18:29:30;;;;;;;4.78;1.87;;;;;;;23.43;35.52;99411.94;7769843;32;40109;-78
2023/07/27 18:33:49;;;;;;;2.47;1.58;;;;;;;23.24;34.96;99416.34;7776846;32;37672;-78
2023/07/27 18:38:05;;;;;;;4.50;1.40;;;;;;;23.12;36.39;99415.69;7776640;32;35882;-78
2023/07/27 18:42:21;;;;;;;4.12;1.67;;;;;;;23.03;36.20;99432.56;7770564;32;40003;-79
2023/07/27 18:46:38;;;;;;;2.97;1.60;;;;;;;22.93;36.74;99439.50;7778866;32;40099;-78
2023/07/27 18:50:57;;;;;;;4.10;1.55;;;;;;;22.79;37.02;99437.19;7779307;32;38741;-79
2023/07/27 18:55:13;;;;;;;3.37;1.42;;;;;;;22.76;36.35;99434.34;7773959;32;36954;-78
2023/07/27 18:59:30;;;;;;;2.45;1.50;;;;;;;22.63;36.22;99433.66;7776627;32;39286;-79
2023/07/27 19:03:46;;;;;;;3.42;1.95;;;;;;;22.54;36.83;99438.59;7784465;32;39726;-78
2023/07/27 19:08:03;;;;;;;2.72;1.45;;;;;;;22.35;37.90;99431.81;7765624;32;37568;-79
2023/07/27 19:12:19;;;;;;;2.60;1.50;;;;;;;22.00;38.45;99435.28;7776417;32;37687;-81
2023/07/27 19:16:35;;;;;;;3.12;1.48;;;;;;;21.88;37.39;99429.81;7790320;32;39225;-81
2023/07/27 19:20:52;;;;;;;3.58;1.80;;;;;;;21.99;35.89;99428.13;7778074;32;41044;-79
2023/07/27 19:25:08;;;;;;;3.08;1.60;;;;;;;21.93;36.34;99433.12;7767605;32;39371;-79
2023/07/27 19:29:25;;;;;;;3.28;1.67;;;;;;;21.86;38.18;99426.59;7779994;32;37028;-79
2023/07/27 19:33:43;;;;;;;3.12;1.73;;;;;;;21.69;38.94;99434.06;7782109;32;39284;-78
2023/07/27 19:38:00;;;;;;;3.35;1.67;;;;;;;21.66;39.46;99434.81;7777762;32;40012;-78
2023/07/27 19:42:17;;;;;;;6.30;1.58;;;;;;;21.53;40.42;99430.47;7778865;32;38689;-78
2023/07/27 19:46:33;;;;;;;4.07;1.60;;;;;;;21.46;41.16;99424.72;7777890;32;37163;-78
2023/07/27 19:50:53;;;;;;;3.08;1.80;;;;;;;21.37;41.12;99422.91;7771913;32;39165;-79
2023/07/27 19:55:11;;;;;;;3.22;1.85;;;;;;;21.23;41.51;99421.66;7775284;32;39854;-78
2023/07/27 19:59:27;;;;;;;2.58;1.42;;;;;;;21.17;41.60;99421.91;7781744;32;38692;-77
2023/07/27 20:03:46;;;;;;;2.03;1.62;;;;;;;20.95;42.06;99420.47;7772647;32;37140;-77
2023/07/27 20:08:03;;;;;;;2.40;1.50;;;;;;;20.94;42.50;99418.88;7764002;32;40108;-77
2023/07/27 20:12:20;;;;;;;4.68;1.55;;;;;;;20.91;42.17;99419.59;7789703;32;40855;-77
2023/07/27 20:16:38;;;;;;;4.60;1.55;;;;;;;20.86;42.05;99430.91;7785778;32;37510;-78